Station Historical Data
Daily Summary for August 25, 2017 Units:  English    Metric   Both
« Previous Day
Next Day »
Daily Weekly Monthly Yearly Custom
  High: Low: Average:
Temperature: 71.0 °F 52.5 °F 62.2 °F
Dew Point: 54.7 °F 43.1 °F 49.7 °F
Humidity: 91% 39% 66%
Wind Speed: 8.0mph 0.0mph 1.2mph
Wind Gust: 11.0mph - -
Wind- - WSW
Pressure: 30.27 in 30.07 in -
Precipitation: 0.00 in    
Historical Graphs
 
 
Tabular Data for August 25, 2017
Time Temperature Dew Point Pressure Wind Wind Speed Wind Gust Humidity Rainfall Rate (Hourly)
00:04 60.1 °F 52.5 °F 30.07 in Calm     76% 0.00 in
00:09 60.2 °F 52.6 °F 30.07 in Calm     76% 0.00 in
00:14 60.2 °F 52.6 °F 30.07 in Calm     76% 0.00 in
00:19 60.1 °F 52.5 °F 30.07 in Calm     76% 0.00 in
00:24 60.1 °F 52.5 °F 30.07 in Calm     76% 0.00 in
00:29 60.1 °F 52.9 °F 30.07 in Calm     77% 0.00 in
00:34 60.0 °F 52.8 °F 30.08 in Calm     77% 0.00 in
00:39 60.0 °F 52.8 °F 30.08 in Calm     77% 0.00 in
00:44 60.1 °F 52.9 °F 30.08 in Calm     77% 0.00 in
00:49 60.2 °F 53.3 °F 30.08 in Calm     78% 0.00 in
00:54 60.3 °F 53.4 °F 30.08 in Calm     78% 0.00 in
00:59 60.4 °F 53.2 °F 30.08 in Calm     77% 0.00 in
01:04 60.3 °F 53.4 °F 30.08 in Calm     78% 0.00 in
01:09 60.3 °F 53.4 °F 30.08 in Calm     78% 0.00 in
01:14 60.4 °F 53.5 °F 30.09 in Calm     78% 0.00 in
01:19 60.4 °F 53.5 °F 30.09 in Calm     78% 0.00 in
01:24 60.3 °F 53.4 °F 30.09 in Calm     78% 0.00 in
01:29 60.3 °F 53.4 °F 30.09 in Calm     78% 0.00 in
01:34 60.4 °F 53.2 °F 30.09 in Calm     77% 0.00 in
01:39 60.3 °F 53.1 °F 30.09 in Calm     77% 0.00 in
01:44 60.2 °F 53.3 °F 30.09 in Calm     78% 0.00 in
01:49 60.1 °F 53.2 °F 30.09 in Calm     78% 0.00 in
01:54 60.1 °F 53.2 °F 30.08 in Calm     78% 0.00 in
01:59 60.0 °F 53.1 °F 30.08 in Calm     78% 0.00 in
02:04 60.0 °F 52.8 °F 30.09 in Calm     77% 0.00 in
02:09 59.9 °F 53.0 °F 30.09 in Calm     78% 0.00 in
02:14 59.6 °F 52.7 °F 30.09 in Calm     78% 0.00 in
02:19 59.1 °F 52.6 °F 30.09 in Calm     79% 0.00 in
02:24 58.9 °F 52.7 °F 30.09 in Calm     80% 0.00 in
02:29 58.5 °F 52.4 °F 30.09 in Calm     80% 0.00 in
02:34 58.1 °F 52.3 °F 30.09 in Calm     81% 0.00 in
02:39 57.9 °F 52.4 °F 30.09 in Calm     82% 0.00 in
02:44 57.7 °F 52.2 °F 30.09 in Calm     82% 0.00 in
02:49 57.5 °F 52.0 °F 30.09 in Calm     82% 0.00 in
02:54 57.3 °F 52.2 °F 30.10 in Calm     83% 0.00 in
02:59 57.1 °F 52.0 °F 30.10 in Calm     83% 0.00 in
03:04 56.9 °F 51.5 °F 30.10 in Calm     82% 0.00 in
03:09 56.8 °F 51.7 °F 30.10 in Calm     83% 0.00 in
03:14 56.6 °F 51.5 °F 30.10 in Calm     83% 0.00 in
03:19 56.5 °F 51.4 °F 30.10 in Calm     83% 0.00 in
03:24 56.6 °F 51.8 °F 30.10 in Calm     84% 0.00 in
03:29 56.5 °F 51.7 °F 30.10 in Calm     84% 0.00 in
03:34 56.4 °F 51.6 °F 30.10 in Calm     84% 0.00 in
03:39 56.0 °F 51.2 °F 30.10 in Calm     84% 0.00 in
03:44 55.7 °F 50.9 °F 30.10 in Calm     84% 0.00 in
03:49 55.6 °F 51.2 °F 30.10 in Calm     85% 0.00 in
03:54 55.5 °F 51.1 °F 30.11 in Calm     85% 0.00 in
03:59 55.4 °F 51.0 °F 30.11 in Calm     85% 0.00 in
04:04 55.2 °F 50.8 °F 30.11 in Calm     85% 0.00 in
04:09 54.9 °F 50.8 °F 30.11 in Calm     86% 0.00 in
04:14 54.6 °F 50.5 °F 30.11 in Calm     86% 0.00 in
04:19 54.4 °F 50.6 °F 30.11 in Calm     87% 0.00 in
04:24 54.1 °F 50.3 °F 30.11 in Calm     87% 0.00 in
04:29 53.8 °F 50.0 °F 30.12 in Calm     87% 0.00 in
04:34 53.8 °F 50.3 °F 30.12 in Calm     88% 0.00 in
04:39 53.5 °F 50.0 °F 30.12 in Calm     88% 0.00 in
04:44 53.3 °F 49.8 °F 30.12 in Calm     88% 0.00 in
04:49 53.3 °F 49.8 °F 30.12 in Calm     88% 0.00 in
04:54 53.2 °F 50.0 °F 30.12 in Calm     89% 0.00 in
04:59 53.2 °F 50.0 °F 30.12 in Calm     89% 0.00 in
05:04 53.2 °F 50.0 °F 30.12 in Calm     89% 0.00 in
05:09 53.1 °F 49.9 °F 30.12 in Calm     89% 0.00 in
05:14 52.8 °F 49.6 °F 30.13 in Calm     89% 0.00 in
05:19 52.9 °F 49.7 °F 30.13 in Calm     89% 0.00 in
05:24 52.8 °F 49.6 °F 30.13 in Calm     89% 0.00 in
05:29 52.6 °F 49.8 °F 30.13 in Calm     90% 0.00 in
05:34 52.5 °F 49.7 °F 30.13 in Calm     90% 0.00 in
05:39 52.6 °F 49.8 °F 30.13 in Calm     90% 0.00 in
05:44 52.6 °F 49.8 °F 30.14 in Calm     90% 0.00 in
05:49 53.1 °F 50.5 °F 30.14 in Calm     91% 0.00 in
05:54 53.4 °F 50.5 °F 30.14 in Calm     90% 0.00 in
05:59 53.5 °F 50.6 °F 30.14 in Calm     90% 0.00 in
06:04 53.6 °F 50.7 °F 30.14 in Calm     90% 0.00 in
06:09 53.5 °F 50.6 °F 30.14 in Calm     90% 0.00 in
06:14 53.4 °F 50.5 °F 30.14 in Calm     90% 0.00 in
06:19 53.3 °F 50.4 °F 30.15 in Calm     90% 0.00 in
06:24 53.0 °F 50.1 °F 30.15 in Calm     90% 0.00 in
06:29 52.8 °F 49.9 °F 30.15 in Calm     90% 0.00 in
06:34 52.7 °F 49.8 °F 30.15 in Calm     90% 0.00 in
06:39 52.7 °F 49.8 °F 30.16 in Calm     90% 0.00 in
06:44 52.7 °F 49.8 °F 30.16 in Calm     90% 0.00 in
06:49 52.7 °F 50.1 °F 30.16 in Calm     91% 0.00 in
06:54 52.8 °F 50.2 °F 30.16 in Calm     91% 0.00 in
06:59 53.0 °F 50.4 °F 30.16 in Calm     91% 0.00 in
07:04 53.3 °F 50.7 °F 30.16 in Calm     91% 0.00 in
07:09 53.7 °F 51.1 °F 30.16 in Calm     91% 0.00 in
07:14 54.0 °F 51.4 °F 30.17 in Calm     91% 0.00 in
07:19 54.4 °F 51.8 °F 30.16 in Calm     91% 0.00 in
07:24 54.9 °F 52.3 °F 30.16 in Calm     91% 0.00 in
07:29 55.4 °F 52.5 °F 30.16 in Calm     90% 0.00 in
07:34 56.0 °F 53.1 °F 30.16 in Calm     90% 0.00 in
07:39 56.5 °F 53.3 °F 30.17 in Calm     89% 0.00 in
07:44 57.0 °F 53.5 °F 30.17 in Calm     88% 0.00 in
07:49 57.5 °F 53.7 °F 30.17 in Calm     87% 0.00 in
07:54 57.9 °F 53.7 °F 30.17 in Calm     86% 0.00 in
07:59 58.3 °F 53.5 °F 30.17 in Calm     84% 0.00 in
08:04 58.6 °F 53.5 °F 30.17 in Calm     83% 0.00 in
08:09 59.1 °F 53.6 °F 30.18 in Calm     82% 0.00 in
08:14 59.3 °F 53.5 °F 30.18 in ENE 2.0 mph 3.0 mph 81% 0.00 in
08:19 59.8 °F 53.6 °F 30.18 in NNW 1.0 mph 3.0 mph 80% 0.00 in
08:24 60.1 °F 53.6 °F 30.18 in Calm   3.0 mph 79% 0.00 in
08:29 60.7 °F 53.8 °F 30.18 in NNW 1.0 mph 3.0 mph 78% 0.00 in
08:34 61.0 °F 53.7 °F 30.18 in NNW 1.0 mph 3.0 mph 77% 0.00 in
08:39 61.8 °F 53.8 °F 30.18 in Calm   4.0 mph 75% 0.00 in
08:44 62.2 °F 53.4 °F 30.18 in NE 1.0 mph 5.0 mph 73% 0.00 in
08:49 62.6 °F 54.2 °F 30.19 in Calm   3.0 mph 74% 0.00 in
08:54 62.7 °F 53.5 °F 30.19 in NNE 1.0 mph 3.0 mph 72% 0.00 in
08:59 63.1 °F 53.9 °F 30.19 in North 1.0 mph 3.0 mph 72% 0.00 in
09:04 62.8 °F 53.3 °F 30.19 in NNE 1.0 mph 4.0 mph 71% 0.00 in
09:09 63.6 °F 54.0 °F 30.19 in North 2.0 mph 4.0 mph 71% 0.00 in
09:14 64.0 °F 54.0 °F 30.19 in NE 3.0 mph 4.0 mph 70% 0.00 in
09:19 64.3 °F 53.9 °F 30.19 in NNW 2.0 mph 3.0 mph 69% 0.00 in
09:24 64.5 °F 53.7 °F 30.19 in North 1.0 mph 5.0 mph 68% 0.00 in
09:29 64.6 °F 54.2 °F 30.19 in NE 2.0 mph 7.0 mph 69% 0.00 in
09:34 64.6 °F 53.8 °F 30.19 in NE 3.0 mph 3.0 mph 68% 0.00 in
09:39 65.3 °F 53.6 °F 30.19 in East 3.0 mph 7.0 mph 66% 0.00 in
09:44 65.0 °F 53.4 °F 30.19 in ESE 1.0 mph 5.0 mph 66% 0.00 in
09:49 64.9 °F 52.4 °F 30.19 in North 1.0 mph 3.0 mph 64% 0.00 in
09:54 65.5 °F 53.4 °F 30.19 in East 2.0 mph 6.0 mph 65% 0.00 in
09:59 65.9 °F 53.4 °F 30.19 in NE 1.0 mph 6.0 mph 64% 0.00 in
10:04 65.4 °F 53.7 °F 30.20 in North 1.0 mph 4.0 mph 66% 0.00 in
10:09 66.4 °F 54.7 °F 30.20 in NW 2.0 mph 4.0 mph 66% 0.00 in
10:14 66.6 °F 52.3 °F 30.20 in NW 2.0 mph 5.0 mph 60% 0.00 in
10:19 66.6 °F 53.2 °F 30.20 in NNE 2.0 mph 6.0 mph 62% 0.00 in
10:24 66.4 °F 52.5 °F 30.20 in Calm   6.0 mph 61% 0.00 in
10:29 66.8 °F 53.8 °F 30.20 in NE 2.0 mph 6.0 mph 63% 0.00 in
10:34 67.1 °F 51.4 °F 30.20 in North 2.0 mph 5.0 mph 57% 0.00 in
10:39 67.3 °F 51.5 °F 30.20 in Calm   5.0 mph 57% 0.00 in
10:44 67.4 °F 52.6 °F 30.20 in ENE 5.0 mph 8.0 mph 59% 0.00 in
10:49 68.6 °F 52.8 °F 30.20 in NNE 6.0 mph 6.0 mph 57% 0.00 in
10:54 68.3 °F 51.5 °F 30.20 in NNW 4.0 mph 6.0 mph 55% 0.00 in
10:59 68.1 °F 52.3 °F 30.20 in NNW 2.0 mph 6.0 mph 57% 0.00 in
11:04 68.8 °F 52.5 °F 30.20 in NNW 3.0 mph 8.0 mph 56% 0.00 in
11:09 67.5 °F 50.3 °F 30.20 in NNW 3.0 mph 8.0 mph 54% 0.00 in
11:14 66.1 °F 49.5 °F 30.20 in NNW 3.0 mph 6.0 mph 55% 0.00 in
11:19 67.0 °F 51.7 °F 30.20 in WNW 8.0 mph 8.0 mph 58% 0.00 in
11:24 67.2 °F 50.5 °F 30.20 in North 4.0 mph 8.0 mph 55% 0.00 in
11:29 68.4 °F 51.6 °F 30.20 in NW 3.0 mph 8.0 mph 55% 0.00 in
11:34 68.7 °F 50.9 °F 30.20 in North 3.0 mph 7.0 mph 53% 0.00 in
11:39 68.5 °F 51.2 °F 30.20 in North 3.0 mph 7.0 mph 54% 0.00 in
11:44 69.6 °F 52.2 °F 30.20 in North 2.0 mph 7.0 mph 54% 0.00 in
11:49 68.8 °F 49.4 °F 30.20 in North 3.0 mph 9.0 mph 50% 0.00 in
11:54 69.8 °F 52.4 °F 30.20 in WNW 2.0 mph 7.0 mph 54% 0.00 in
11:59 68.9 °F 51.1 °F 30.19 in NNW 2.0 mph 7.0 mph 53% 0.00 in
12:04 67.0 °F 49.8 °F 30.20 in North 3.0 mph 7.0 mph 54% 0.00 in
12:09 66.9 °F 50.7 °F 30.20 in North 2.0 mph 6.0 mph 56% 0.00 in
12:14 67.7 °F 51.9 °F 30.19 in NNW 3.0 mph 8.0 mph 57% 0.00 in
12:19 69.0 °F 52.6 °F 30.19 in NNW 3.0 mph 7.0 mph 56% 0.00 in
12:24 68.7 °F 52.4 °F 30.19 in NNW 1.0 mph 9.0 mph 56% 0.00 in
12:29 69.2 °F 52.8 °F 30.19 in NNE 3.0 mph 9.0 mph 56% 0.00 in
12:34 68.1 °F 48.8 °F 30.19 in NNW 3.0 mph 9.0 mph 50% 0.00 in
12:39 68.2 °F 50.4 °F 30.19 in NNW 3.0 mph 9.0 mph 53% 0.00 in
12:44 69.5 °F 52.6 °F 30.19 in NE 4.0 mph 7.0 mph 55% 0.00 in
12:49 69.7 °F 53.3 °F 30.20 in NNW 5.0 mph 7.0 mph 56% 0.00 in
12:54 69.0 °F 51.2 °F 30.19 in NNW 1.0 mph 7.0 mph 53% 0.00 in
12:59 68.2 °F 50.9 °F 30.19 in North 1.0 mph 7.0 mph 54% 0.00 in
13:04 67.6 °F 52.3 °F 30.19 in North 4.0 mph 7.0 mph 58% 0.00 in
13:09 68.6 °F 49.7 °F 30.20 in NNW 3.0 mph 8.0 mph 51% 0.00 in
13:14 68.5 °F 49.7 °F 30.19 in NNW 3.0 mph 5.0 mph 51% 0.00 in
13:19 69.4 °F 53.0 °F 30.20 in NE 5.0 mph 8.0 mph 56% 0.00 in
13:24 68.1 °F 49.3 °F 30.19 in NNW 8.0 mph 8.0 mph 51% 0.00 in
13:29 67.5 °F 49.8 °F 30.19 in NW 3.0 mph 8.0 mph 53% 0.00 in
13:39 69.7 °F 50.2 °F 30.20 in NNW 2.0 mph 5.0 mph 50% 0.00 in
13:44 69.3 °F 50.4 °F 30.20 in NNW 2.0 mph 6.0 mph 51% 0.00 in
13:49 68.6 °F 49.2 °F 30.20 in NNW 2.0 mph 7.0 mph 50% 0.00 in
13:54 68.8 °F 49.4 °F 30.20 in NNW 3.0 mph 7.0 mph 50% 0.00 in
13:59 69.1 °F 48.6 °F 30.20 in North 1.0 mph 9.0 mph 48% 0.00 in
14:04 68.9 °F 52.1 °F 30.20 in NNE 8.0 mph 8.0 mph 55% 0.00 in
14:09 69.8 °F 50.3 °F 30.20 in North 3.0 mph 8.0 mph 50% 0.00 in
14:14 69.5 °F 51.1 °F 30.20 in North 1.0 mph 8.0 mph 52% 0.00 in
14:19 69.8 °F 49.8 °F 30.20 in NNE 6.0 mph 9.0 mph 49% 0.00 in
14:24 70.4 °F 53.0 °F 30.20 in Calm   6.0 mph 54% 0.00 in
14:29 71.0 °F 50.9 °F 30.20 in NW 5.0 mph 7.0 mph 49% 0.00 in
14:34 70.2 °F 48.4 °F 30.20 in NNW 3.0 mph 7.0 mph 46% 0.00 in
14:39 70.4 °F 49.8 °F 30.19 in NW 4.0 mph 7.0 mph 48% 0.00 in
14:44 70.6 °F 48.8 °F 30.19 in WNW 4.0 mph 9.0 mph 46% 0.00 in
14:49 69.9 °F 48.2 °F 30.19 in NW 3.0 mph 8.0 mph 46% 0.00 in
14:59 70.9 °F 50.2 °F 30.19 in NW 3.0 mph 8.0 mph 48% 0.00 in
15:04 70.4 °F 48.6 °F 30.19 in NNW 4.0 mph 10.0 mph 46% 0.00 in
15:09 69.9 °F 48.7 °F 30.19 in NNW 3.0 mph 10.0 mph 47% 0.00 in
15:14 70.6 °F 51.1 °F 30.19 in NE 4.0 mph 5.0 mph 50% 0.00 in
15:19 70.3 °F 47.3 °F 30.20 in NNW 3.0 mph 10.0 mph 44% 0.00 in
15:24 69.7 °F 48.0 °F 30.19 in NNW 2.0 mph 7.0 mph 46% 0.00 in
15:29 70.7 °F 48.9 °F 30.19 in NNW 4.0 mph 5.0 mph 46% 0.00 in
15:34 70.5 °F 48.1 °F 30.19 in North 3.0 mph 9.0 mph 45% 0.00 in
15:39 70.5 °F 48.7 °F 30.19 in NNW 3.0 mph 9.0 mph 46% 0.00 in
15:44 70.4 °F 49.2 °F 30.20 in NW 3.0 mph 11.0 mph 47% 0.00 in
15:49 69.7 °F 49.1 °F 30.20 in NNW 2.0 mph 5.0 mph 48% 0.00 in
15:54 70.3 °F 47.3 °F 30.19 in NNE 7.0 mph 9.0 mph 44% 0.00 in
15:59 70.5 °F 46.9 °F 30.19 in NNW 6.0 mph 8.0 mph 43% 0.00 in
16:04 70.6 °F 48.8 °F 30.19 in Calm   7.0 mph 46% 0.00 in
16:09 70.6 °F 47.0 °F 30.19 in NNW 2.0 mph 7.0 mph 43% 0.00 in
16:14 70.3 °F 45.5 °F 30.19 in NNW 2.0 mph 7.0 mph 41% 0.00 in
16:19 70.2 °F 45.4 °F 30.19 in NNW 3.0 mph 9.0 mph 41% 0.00 in
16:24 69.5 °F 44.8 °F 30.19 in North 4.0 mph 9.0 mph 41% 0.00 in
16:29 69.8 °F 45.7 °F 30.19 in NNE 4.0 mph 9.0 mph 42% 0.00 in
16:34 69.7 °F 45.6 °F 30.20 in NNW 4.0 mph 6.0 mph 42% 0.00 in
16:39 69.7 °F 44.3 °F 30.20 in NW 3.0 mph 11.0 mph 40% 0.00 in
16:44 69.2 °F 43.8 °F 30.20 in NW 4.0 mph 11.0 mph 40% 0.00 in
16:49 69.5 °F 46.6 °F 30.20 in NW 5.0 mph 5.0 mph 44% 0.00 in
16:54 69.5 °F 43.4 °F 30.20 in ENE 2.0 mph 7.0 mph 39% 0.00 in
16:59 69.1 °F 43.1 °F 30.20 in NNW 2.0 mph 7.0 mph 39% 0.00 in
17:04 68.8 °F 46.0 °F 30.20 in North 1.0 mph 6.0 mph 44% 0.00 in
17:09 69.2 °F 45.1 °F 30.20 in NNW 2.0 mph 6.0 mph 42% 0.00 in
17:14 69.4 °F 45.9 °F 30.20 in NW 2.0 mph 6.0 mph 43% 0.00 in
17:19 69.0 °F 47.4 °F 30.20 in North 2.0 mph 5.0 mph 46% 0.00 in
17:24 69.0 °F 45.6 °F 30.21 in North 2.0 mph 7.0 mph 43% 0.00 in
17:29 68.7 °F 45.3 °F 30.21 in Calm   6.0 mph 43% 0.00 in
17:34 68.6 °F 45.2 °F 30.20 in WNW 2.0 mph 3.0 mph 43% 0.00 in
17:39 68.8 °F 44.1 °F 30.21 in NNW 2.0 mph 6.0 mph 41% 0.00 in
17:44 68.6 °F 44.6 °F 30.21 in NNW 2.0 mph 6.0 mph 42% 0.00 in
17:49 68.6 °F 46.4 °F 30.21 in NNW 2.0 mph 6.0 mph 45% 0.00 in
17:54 68.3 °F 45.5 °F 30.21 in NNE 2.0 mph 10.0 mph 44% 0.00 in
17:59 68.2 °F 44.2 °F 30.21 in NW 3.0 mph 8.0 mph 42% 0.00 in
18:04 67.7 °F 44.4 °F 30.21 in Calm   7.0 mph 43% 0.00 in
18:09 67.4 °F 44.1 °F 30.21 in North 2.0 mph 5.0 mph 43% 0.00 in
18:14 67.3 °F 44.6 °F 30.21 in NNW 2.0 mph 5.0 mph 44% 0.00 in
18:19 67.1 °F 44.4 °F 30.21 in NW 2.0 mph 6.0 mph 44% 0.00 in
18:24 66.8 °F 45.3 °F 30.21 in NNW 3.0 mph 6.0 mph 46% 0.00 in
18:29 66.7 °F 45.8 °F 30.21 in NNW 2.0 mph 6.0 mph 47% 0.00 in
18:34 66.9 °F 46.0 °F 30.21 in NE 6.0 mph 9.0 mph 47% 0.00 in
18:39 66.7 °F 44.7 °F 30.21 in Calm   6.0 mph 45% 0.00 in
18:44 66.5 °F 45.6 °F 30.21 in NNW 2.0 mph 8.0 mph 47% 0.00 in
18:49 66.1 °F 45.3 °F 30.21 in NW 2.0 mph 5.0 mph 47% 0.00 in
18:54 65.9 °F 45.1 °F 30.21 in NNW 2.0 mph 5.0 mph 47% 0.00 in
18:59 65.9 °F 45.6 °F 30.21 in NE 2.0 mph 8.0 mph 48% 0.00 in
19:04 65.5 °F 46.4 °F 30.21 in Calm   4.0 mph 50% 0.00 in
19:09 65.4 °F 45.7 °F 30.21 in NNW 1.0 mph 4.0 mph 49% 0.00 in
19:14 65.1 °F 46.0 °F 30.21 in NNW 1.0 mph 4.0 mph 50% 0.00 in
19:19 65.0 °F 45.9 °F 30.21 in NNW 1.0 mph 2.0 mph 50% 0.00 in
19:24 64.8 °F 45.2 °F 30.21 in NNW 1.0 mph 2.0 mph 49% 0.00 in
19:29 64.6 °F 45.5 °F 30.21 in Calm   2.0 mph 50% 0.00 in
19:34 64.3 °F 46.3 °F 30.22 in Calm     52% 0.00 in
19:39 64.4 °F 45.9 °F 30.22 in Calm     51% 0.00 in
19:44 64.1 °F 46.1 °F 30.22 in Calm     52% 0.00 in
19:49 63.9 °F 45.9 °F 30.22 in Calm     52% 0.00 in
19:54 63.8 °F 45.8 °F 30.22 in Calm     52% 0.00 in
19:59 63.7 °F 46.2 °F 30.22 in Calm     53% 0.00 in
20:04 63.2 °F 45.8 °F 30.22 in Calm     53% 0.00 in
20:09 62.9 °F 46.0 °F 30.22 in Calm     54% 0.00 in
20:14 62.7 °F 46.3 °F 30.22 in Calm     55% 0.00 in
20:19 62.6 °F 46.2 °F 30.22 in Calm     55% 0.00 in
20:24 62.3 °F 46.4 °F 30.22 in Calm     56% 0.00 in
20:29 62.3 °F 45.9 °F 30.22 in Calm     55% 0.00 in
20:34 61.9 °F 46.5 °F 30.23 in Calm     57% 0.00 in
20:39 61.6 °F 46.2 °F 30.23 in Calm     57% 0.00 in
20:44 61.6 °F 46.2 °F 30.23 in Calm     57% 0.00 in
20:49 61.4 °F 46.0 °F 30.23 in Calm     57% 0.00 in
20:54 61.3 °F 45.9 °F 30.23 in Calm     57% 0.00 in
20:59 61.1 °F 46.2 °F 30.23 in Calm     58% 0.00 in
21:04 60.9 °F 46.0 °F 30.24 in Calm     58% 0.00 in
21:09 60.7 °F 46.3 °F 30.24 in Calm     59% 0.00 in
21:14 60.4 °F 46.0 °F 30.24 in Calm     59% 0.00 in
21:19 60.2 °F 46.3 °F 30.24 in Calm     60% 0.00 in
21:24 59.7 °F 46.2 °F 30.24 in Calm     61% 0.00 in
21:29 59.2 °F 46.6 °F 30.24 in Calm     63% 0.00 in
21:34 58.7 °F 46.5 °F 30.25 in Calm     64% 0.00 in
21:39 58.6 °F 46.5 °F 30.24 in Calm     64% 0.00 in
21:44 58.2 °F 46.5 °F 30.25 in Calm     65% 0.00 in
21:49 58.3 °F 46.2 °F 30.25 in Calm     64% 0.00 in
21:54 58.1 °F 46.4 °F 30.25 in Calm     65% 0.00 in
21:59 58.2 °F 46.5 °F 30.25 in Calm     65% 0.00 in
22:04 57.9 °F 46.6 °F 30.25 in Calm     66% 0.00 in
22:09 57.8 °F 46.5 °F 30.25 in Calm     66% 0.00 in
22:14 57.5 °F 47.0 °F 30.25 in Calm     68% 0.00 in
22:19 57.3 °F 46.8 °F 30.25 in Calm     68% 0.00 in
22:24 57.1 °F 47.0 °F 30.25 in Calm     69% 0.00 in
22:29 57.1 °F 47.0 °F 30.26 in Calm     69% 0.00 in
22:34 56.9 °F 47.2 °F 30.26 in Calm     70% 0.00 in
22:39 57.0 °F 46.9 °F 30.26 in Calm     69% 0.00 in
22:44 56.8 °F 47.1 °F 30.26 in Calm     70% 0.00 in
22:49 56.7 °F 47.0 °F 30.26 in Calm     70% 0.00 in
22:54 56.9 °F 47.2 °F 30.26 in Calm     70% 0.00 in
22:59 57.0 °F 47.3 °F 30.26 in Calm     70% 0.00 in
23:04 56.9 °F 47.2 °F 30.26 in Calm     70% 0.00 in
23:09 56.4 °F 47.1 °F 30.26 in Calm     71% 0.00 in
23:15 56.3 °F 47.4 °F 30.26 in Calm     72% 0.00 in
23:24 56.0 °F 47.5 °F 30.26 in Calm     73% 0.00 in
23:29 55.8 °F 47.3 °F 30.26 in Calm     73% 0.00 in
23:34 55.6 °F 47.4 °F 30.26 in Calm     74% 0.00 in
23:39 55.5 °F 47.3 °F 30.26 in Calm     74% 0.00 in
23:44 55.1 °F 47.3 °F 30.26 in Calm     75% 0.00 in
23:49 54.7 °F 46.9 °F 30.27 in Calm     75% 0.00 in
23:54 54.6 °F 47.2 °F 30.27 in Calm     76% 0.00 in
23:59 54.7 °F 46.9 °F 30.27 in Calm     75% 0.00 in
Buffalo, New York, USA
Compliments of Weather Underground - 2.5 mb